Time;durP1;ratioP1;P1;durP2;ratioP2;P2;SDS_P1;SDS_P2;PMS_P1;PMS_P2;Temp;Humidity;BMP_temperature;BMP_pressure;BME280_temperature;BME280_humidity;BME280_pressure;Samples;Min_cycle;Max_cycle;Signal;HPM_P1;HPM_P2
2023/12/19 15:24:03;;;;;;;2.95;1.70;;;;;;;11.76;43.14;92963.19;5154846;27;20156;-78
2023/12/19 15:26:29;;;;;;;2.53;1.50;;;;;;;11.65;43.80;92957.28;5158431;27;20039;-78
2023/12/19 15:29:00;;;;;;;2.28;1.50;;;;;;;11.53;45.33;92954.28;5143396;27;20034;-79
2023/12/19 15:31:25;;;;;;;4.47;1.52;;;;;;;11.40;46.69;92953.09;5122879;28;20032;-78
2023/12/19 15:33:57;;;;;;;2.25;1.40;;;;;;;11.27;47.74;92948.53;5142145;28;20074;-78
2023/12/19 15:36:22;;;;;;;5.25;3.03;;;;;;;11.12;47.96;92949.44;5141294;28;20049;-78
2023/12/19 15:38:49;;;;;;;6.05;3.03;;;;;;;11.01;47.20;92948.78;5140897;28;20067;-79
2023/12/19 15:41:16;;;;;;;3.50;2.20;;;;;;;10.89;47.62;92951.00;5105027;28;20038;-79
2023/12/19 15:43:43;;;;;;;5.82;2.22;;;;;;;10.79;47.33;92943.25;5139185;28;20042;-78
2023/12/19 15:46:09;;;;;;;2.65;1.65;;;;;;;10.65;48.19;92932.63;5136668;28;20011;-79
2023/12/19 15:48:35;;;;;;;3.00;1.42;;;;;;;10.52;48.86;92931.41;5136517;28;20418;-78
2023/12/19 15:51:02;;;;;;;3.03;2.00;;;;;;;10.46;48.43;92934.34;5136141;28;20027;-78
2023/12/19 15:53:29;;;;;;;4.28;1.80;;;;;;;10.40;47.98;92937.00;5136455;28;20040;-79
2023/12/19 15:55:55;;;;;;;3.67;1.63;;;;;;;10.29;48.52;92932.09;5135092;28;20248;-78
2023/12/19 15:58:21;;;;;;;3.30;2.00;;;;;;;10.17;49.27;92927.97;5117179;28;20475;-77
2023/12/19 16:00:47;;;;;;;2.67;1.67;;;;;;;10.14;50.17;92935.59;5133451;28;20023;-78
2023/12/19 16:03:12;;;;;;;2.35;1.50;;;;;;;10.05;51.57;92943.22;5136679;28;20134;-78
2023/12/19 16:05:38;;;;;;;2.85;1.50;;;;;;;9.91;51.55;92937.03;5135907;28;20050;-78
2023/12/19 16:08:07;;;;;;;3.85;2.10;;;;;;;9.84;50.71;92939.97;5149646;27;20039;-80
2023/12/19 16:10:33;;;;;;;4.95;3.20;;;;;;;9.81;49.33;92935.25;5153401;27;20116;-79
2023/12/19 16:12:59;;;;;;;4.57;3.05;;;;;;;9.74;50.02;92937.38;5122682;28;20087;-79
2023/12/19 16:15:25;;;;;;;3.40;2.10;;;;;;;9.66;50.15;92938.75;5141245;28;20031;-80
2023/12/19 16:17:50;;;;;;;2.78;1.80;;;;;;;9.58;50.37;92936.69;5141381;28;20095;-80
2023/12/19 16:20:27;;;;;;;3.13;1.90;;;;;;;9.50;50.25;92935.41;5141143;28;20094;-78
2023/12/19 16:23:24;;;;;;;5.30;2.30;;;;;;;9.44;50.44;92943.53;5141167;28;20047;-79
2023/12/19 16:25:53;;;;;;;6.88;2.20;;;;;;;9.36;51.09;92937.78;5140496;28;20482;-79
2023/12/19 16:28:41;;;;;;;3.10;1.88;;;;;;;9.30;51.67;92941.50;5124130;28;20035;-80
2023/12/19 16:31:15;;;;;;;2.88;1.73;;;;;;;9.24;52.51;92933.94;5158685;27;20041;-79
2023/12/19 16:33:41;;;;;;;4.30;2.20;;;;;;;9.17;53.63;92937.59;5114998;28;20414;-80
2023/12/19 16:36:51;;;;;;;3.75;2.42;;;;;;;9.08;52.75;92930.59;5104830;28;20092;-79
2023/12/19 16:39:17;;;;;;;4.15;2.58;;;;;;;8.95;53.37;92929.31;5104236;28;20066;-79
2023/12/19 16:41:42;;;;;;;5.82;3.78;;;;;;;8.91;53.13;92931.66;5104283;28;20491;-79
2023/12/19 16:44:10;;;;;;;11.05;4.05;;;;;;;8.92;52.10;92933.22;5104657;28;20091;-80
2023/12/19 16:46:36;;;;;;;5.00;2.35;;;;;;;8.87;52.25;92928.03;5102958;28;20559;-80
2023/12/19 16:49:02;;;;;;;4.10;2.80;;;;;;;8.85;52.41;92926.69;5119301;28;20063;-78
2023/12/19 16:51:28;;;;;;;3.22;1.90;;;;;;;8.86;52.42;92923.84;5095340;28;20512;-81
2023/12/19 16:53:56;;;;;;;2.78;1.70;;;;;;;8.79;52.58;92920.72;5096265;28;20100;-80
2023/12/19 16:56:21;;;;;;;3.92;1.50;;;;;;;8.78;51.66;92927.00;5096728;28;20044;-81
2023/12/19 16:58:47;;;;;;;1.88;1.40;;;;;;;8.72;51.99;92928.03;5098423;28;20047;-80
2023/12/19 17:01:13;;;;;;;2.78;1.40;;;;;;;8.71;51.33;92929.88;5114477;28;20498;-80
2023/12/19 17:03:40;;;;;;;1.88;1.40;;;;;;;8.69;51.19;92923.34;5115995;28;20471;-79
2023/12/19 17:06:07;;;;;;;2.63;1.60;;;;;;;8.61;50.97;92921.28;5100764;28;20119;-79
2023/12/19 17:08:34;;;;;;;6.85;1.92;;;;;;;8.57;50.68;92920.22;5113891;28;20060;-79
2023/12/19 17:11:00;;;;;;;5.07;1.90;;;;;;;8.51;50.25;92927.25;5101002;28;20506;-80
2023/12/19 17:13:48;;;;;;;3.30;2.00;;;;;;;8.48;50.77;92927.81;5102571;28;20028;-79
2023/12/19 17:16:14;;;;;;;2.92;1.70;;;;;;;8.42;51.22;92924.44;5103012;28;20123;-78
2023/12/19 17:18:40;;;;;;;2.58;1.40;;;;;;;8.37;51.69;92921.00;5100678;28;20096;-79
2023/12/19 17:21:05;;;;;;;2.45;1.33;;;;;;;8.32;52.59;92913.94;5126163;27;20340;-79
2023/12/19 17:23:31;;;;;;;1.35;1.00;;;;;;;8.27;53.15;92911.34;5124570;28;20127;-78
2023/12/19 17:25:57;;;;;;;3.53;1.40;;;;;;;8.23;53.38;92915.50;5115484;28;20716;-82
2023/12/19 17:28:22;;;;;;;4.38;1.33;;;;;;;8.14;54.04;92908.19;5101637;28;20039;-81
2023/12/19 17:30:48;;;;;;;2.10;1.20;;;;;;;8.14;53.93;92913.41;5112438;28;20033;-78
2023/12/19 17:33:13;;;;;;;2.13;1.30;;;;;;;8.11;53.76;92911.34;5119716;27;20050;-78
2023/12/19 17:35:39;;;;;;;2.17;1.48;;;;;;;8.08;53.44;92911.88;5101904;28;20043;-78
2023/12/19 17:38:05;;;;;;;1.77;1.27;;;;;;;8.06;53.38;92905.31;5103565;28;20039;-77
2023/12/19 17:40:31;;;;;;;2.03;1.33;;;;;;;8.00;53.44;92907.16;5101667;28;20052;-79
2023/12/19 17:42:57;;;;;;;1.98;1.30;;;;;;;8.01;52.95;92905.31;5127027;27;20012;-79
2023/12/19 17:45:22;;;;;;;1.98;1.38;;;;;;;8.00;52.21;92909.75;5086575;28;20082;-79
2023/12/19 17:47:48;;;;;;;3.55;1.20;;;;;;;7.97;52.39;92902.47;5106499;28;20123;-80
2023/12/19 17:50:13;;;;;;;1.92;1.20;;;;;;;7.93;53.38;92901.41;5106515;28;20036;-78
2023/12/19 17:52:39;;;;;;;5.47;1.48;;;;;;;7.88;54.00;92893.56;5103513;28;20036;-79
2023/12/19 17:55:05;;;;;;;4.88;1.60;;;;;;;7.82;54.56;92892.03;5103353;28;20081;-78
2023/12/19 17:57:31;;;;;;;2.28;1.48;;;;;;;7.76;55.17;92895.66;5113566;28;20471;-79
2023/12/19 17:59:56;;;;;;;2.55;1.50;;;;;;;7.62;56.31;92884.94;5104284;28;20040;-78
2023/12/19 18:02:22;;;;;;;2.60;1.40;;;;;;;7.65;55.59;92894.84;5098456;28;20487;-81
2023/12/19 18:04:47;;;;;;;3.28;1.60;;;;;;;7.63;55.13;92884.69;5106062;28;20066;-79
2023/12/19 18:07:13;;;;;;;5.57;2.85;;;;;;;7.64;54.48;92893.28;5104326;28;20062;-79
2023/12/19 18:09:39;;;;;;;9.15;3.92;;;;;;;7.62;53.53;92884.94;5097722;28;20146;-82
2023/12/19 18:12:05;;;;;;;11.23;3.50;;;;;;;7.60;53.00;92882.59;5113519;28;20032;-78
2023/12/19 18:14:31;;;;;;;6.00;2.60;;;;;;;7.59;52.21;92881.03;5100046;28;20234;-80
2023/12/19 18:17:02;;;;;;;4.63;3.10;;;;;;;7.53;51.97;92887.25;5099113;28;20055;-81
2023/12/19 18:19:28;;;;;;;2.93;1.90;;;;;;;7.52;52.46;92888.31;5096525;28;20073;-77
2023/12/19 18:21:54;;;;;;;4.20;1.70;;;;;;;7.47;52.43;92883.06;5100246;28;20036;-78
2023/12/19 18:24:19;;;;;;;12.15;4.10;;;;;;;7.48;51.93;92884.66;5099942;27;20058;-78
2023/12/19 18:26:45;;;;;;;6.85;2.95;;;;;;;7.46;51.42;92871.09;5111532;27;20419;-78
2023/12/19 18:29:10;;;;;;;3.97;1.98;;;;;;;7.44;51.61;92873.94;5099676;27;20134;-78
2023/12/19 18:31:36;;;;;;;2.72;1.60;;;;;;;7.42;52.08;92870.03;5105391;28;20032;-78
2023/12/19 18:34:02;;;;;;;1.63;1.30;;;;;;;7.40;52.35;92861.69;5125397;27;20200;-78
2023/12/19 18:36:27;;;;;;;1.20;1.10;;;;;;;7.41;53.19;92860.69;5122645;27;20176;-78
2023/12/19 18:38:53;;;;;;;1.65;1.20;;;;;;;7.35;53.37;92853.88;5119805;27;20031;-79
2023/12/19 18:41:18;;;;;;;2.47;1.35;;;;;;;7.35;53.42;92864.31;5115860;28;20040;-79
2023/12/19 18:43:46;;;;;;;1.58;1.10;;;;;;;7.29;53.71;92861.69;5116479;27;20054;-79
2023/12/19 18:46:14;;;;;;;3.40;1.50;;;;;;;7.30;53.74;92855.44;5120170;27;20040;-77
2023/12/19 18:48:40;;;;;;;3.25;1.80;;;;;;;7.27;53.40;92858.56;5101281;28;20476;-78
2023/12/19 18:51:06;;;;;;;3.00;1.40;;;;;;;7.24;53.24;92859.06;5121364;27;20142;-78
2023/12/19 18:53:31;;;;;;;1.40;1.02;;;;;;;7.21;52.52;92854.38;5112153;28;20415;-78
2023/12/19 18:55:57;;;;;;;3.38;1.50;;;;;;;7.22;51.63;92861.13;5105843;28;20036;-78
2023/12/19 18:58:25;;;;;;;4.07;2.15;;;;;;;7.19;51.41;92856.44;5122768;28;20035;-76
2023/12/19 19:00:50;;;;;;;6.35;3.40;;;;;;;7.16;50.81;92863.97;5114821;27;20449;-78
2023/12/19 19:03:16;;;;;;;3.08;1.83;;;;;;;7.13;50.62;92854.06;5115573;27;20054;-77
2023/12/19 19:05:41;;;;;;;3.20;1.83;;;;;;;7.16;49.90;92864.78;5119374;27;20034;-78
2023/12/19 19:08:07;;;;;;;4.97;2.15;;;;;;;7.17;49.27;92857.72;5110840;28;20046;-77
2023/12/19 19:10:33;;;;;;;4.43;2.00;;;;;;;7.13;50.23;92859.28;5123505;27;20537;-78
2023/12/19 19:12:59;;;;;;;4.88;2.20;;;;;;;7.08;50.33;92849.63;5113801;27;20066;-78
2023/12/19 19:15:24;;;;;;;2.47;1.50;;;;;;;7.11;50.77;92848.34;5119010;28;20020;-78
2023/12/19 19:17:50;;;;;;;1.77;1.17;;;;;;;7.07;51.33;92848.06;5113128;28;20073;-78
2023/12/19 19:20:48;;;;;;;1.45;1.10;;;;;;;7.04;51.71;92838.94;5102913;28;20095;-77
2023/12/19 19:23:15;;;;;;;1.08;0.98;;;;;;;7.02;52.55;92835.03;5069552;28;20040;-77
2023/12/19 19:25:41;;;;;;;1.23;0.98;;;;;;;7.00;52.93;92835.31;5119506;28;20454;-78
2023/12/19 19:28:12;;;;;;;2.70;1.20;;;;;;;6.97;52.19;92832.41;5118948;28;20090;-79
2023/12/19 19:30:40;;;;;;;2.33;1.50;;;;;;;6.93;51.70;92829.53;5118240;28;20043;-78
2023/12/19 19:33:06;;;;;;;3.17;1.63;;;;;;;6.91;51.55;92828.22;5123651;28;20039;-78
2023/12/19 19:35:34;;;;;;;3.22;1.52;;;;;;;6.88;51.73;92822.47;5112885;28;20028;-77
2023/12/19 19:38:01;;;;;;;2.38;1.45;;;;;;;6.86;51.95;92828.97;5115036;28;20024;-78
2023/12/19 19:40:31;;;;;;;1.60;1.17;;;;;;;6.81;52.50;92824.53;5116996;28;20119;-78
2023/12/19 19:42:59;;;;;;;1.30;1.10;;;;;;;6.79;52.98;92815.41;5112119;28;20039;-78
2023/12/19 19:45:24;;;;;;;2.88;1.00;;;;;;;6.76;53.54;92821.91;5121029;28;20061;-78
2023/12/19 19:47:50;;;;;;;1.50;1.10;;;;;;;6.75;53.30;92811.75;5119823;28;20028;-78
2023/12/19 19:50:16;;;;;;;1.52;1.10;;;;;;;6.75;53.38;92809.16;5098572;28;20035;-78
2023/12/19 19:52:42;;;;;;;1.15;1.05;;;;;;;6.75;53.38;92815.13;5120656;28;20032;-78
2023/12/19 19:55:08;;;;;;;1.05;0.90;;;;;;;6.73;53.72;92812.00;5123467;28;20031;-78
2023/12/19 19:57:36;;;;;;;2.28;1.40;;;;;;;6.72;53.34;92809.69;5115931;28;20221;-78
2023/12/19 20:00:03;;;;;;;3.58;1.55;;;;;;;6.70;53.08;92812.53;5118203;28;20047;-77
2023/12/19 20:02:29;;;;;;;1.45;1.20;;;;;;;6.65;53.35;92802.88;5120649;28;20039;-80
2023/12/19 20:04:55;;;;;;;1.13;1.00;;;;;;;6.65;53.07;92795.06;5118986;28;20031;-78
2023/12/19 20:07:21;;;;;;;1.27;1.00;;;;;;;6.66;52.77;92795.84;5122042;28;20039;-78
2023/12/19 20:09:47;;;;;;;2.15;1.23;;;;;;;6.65;52.85;92799.50;5124250;27;20099;-78
2023/12/19 20:12:12;;;;;;;3.78;1.10;;;;;;;6.64;52.72;92792.72;5129119;27;20080;-78
2023/12/19 20:14:38;;;;;;;2.10;1.25;;;;;;;6.62;53.20;92792.19;5102838;28;20059;-78
2023/12/19 20:17:04;;;;;;;1.52;1.20;;;;;;;6.60;53.42;92797.66;5133076;27;20430;-77
2023/12/19 20:19:29;;;;;;;4.93;2.20;;;;;;;6.59;53.14;92790.09;5130922;27;20023;-78
2023/12/19 20:21:55;;;;;;;2.95;1.55;;;;;;;6.58;53.65;92784.13;5123904;27;20066;-78
2023/12/19 20:24:20;;;;;;;1.35;1.10;;;;;;;6.57;53.88;92782.53;5132043;27;20071;-77
2023/12/19 20:26:46;;;;;;;1.85;1.25;;;;;;;6.56;54.13;92781.00;5129039;27;20028;-77
2023/12/19 20:29:11;;;;;;;1.55;1.30;;;;;;;6.53;54.34;92776.31;5133782;27;20061;-78
2023/12/19 20:31:37;;;;;;;1.65;1.23;;;;;;;6.53;54.05;92776.31;5122701;27;20026;-78
2023/12/19 20:34:03;;;;;;;2.03;1.30;;;;;;;6.47;53.32;92780.69;5121115;27;20039;-78
2023/12/19 20:36:29;;;;;;;1.50;1.17;;;;;;;6.51;52.55;92782.78;5120580;27;20410;-77
2023/12/19 20:38:55;;;;;;;0.85;0.85;;;;;;;6.47;53.03;92772.88;5134942;27;20054;-78
2023/12/19 20:41:24;;;;;;;1.38;1.10;;;;;;;6.46;53.22;92773.13;5121392;27;20031;-78
2023/12/19 20:43:51;;;;;;;1.30;1.10;;;;;;;6.44;53.05;92764.81;5121449;27;20019;-78
2023/12/19 20:46:17;;;;;;;1.23;1.10;;;;;;;6.44;53.40;92768.19;5123340;27;20336;-78
2023/12/19 20:48:43;;;;;;;1.50;1.10;;;;;;;6.41;53.81;92763.47;5117813;28;20081;-78
2023/12/19 20:51:08;;;;;;;1.42;1.13;;;;;;;6.36;54.02;92755.66;5116889;28;20047;-78
2023/12/19 20:53:34;;;;;;;1.40;1.00;;;;;;;6.37;54.30;92762.44;5120861;28;20027;-78
2023/12/19 20:56:00;;;;;;;1.38;1.20;;;;;;;6.35;53.60;92758.50;5117863;27;20085;-78
2023/12/19 20:58:26;;;;;;;1.15;1.02;;;;;;;6.33;53.87;92753.59;5122821;27;20078;-78
2023/12/19 21:00:52;;;;;;;1.27;1.00;;;;;;;6.26;53.76;92740.03;5106530;28;20060;-77
2023/12/19 21:03:20;;;;;;;2.38;1.20;;;;;;;6.28;53.55;92743.13;5118502;27;20309;-78
2023/12/19 21:05:48;;;;;;;1.20;1.00;;;;;;;6.29;53.97;92742.13;5114113;27;20032;-78
2023/12/19 21:08:14;;;;;;;1.20;0.90;;;;;;;6.26;54.55;92729.63;5119917;27;20040;-78
2023/12/19 21:10:40;;;;;;;1.42;0.95;;;;;;;6.31;54.38;92736.69;5118789;28;20042;-77
2023/12/19 21:13:05;;;;;;;1.52;1.13;;;;;;;6.31;53.88;92726.28;5130395;27;20077;-78
2023/12/19 21:15:32;;;;;;;1.50;1.02;;;;;;;6.27;54.15;92723.38;5126768;27;20118;-81
2023/12/19 21:17:59;;;;;;;1.73;1.10;;;;;;;6.30;54.60;92728.06;5140214;27;20039;-81
2023/12/19 21:20:25;;;;;;;1.08;1.05;;;;;;;6.31;54.58;92723.69;5143870;27;20031;-82
2023/12/19 21:22:50;;;;;;;1.20;1.10;;;;;;;6.34;54.00;92716.13;5129839;28;20047;-80
2023/12/19 21:25:25;;;;;;;1.23;0.90;;;;;;;6.35;53.79;92722.91;5114093;28;20092;-81
2023/12/19 21:27:51;;;;;;;1.08;1.00;;;;;;;6.37;53.59;92709.63;5135892;27;20043;-80
2023/12/19 21:30:18;;;;;;;1.27;1.10;;;;;;;6.33;53.03;92696.38;5120007;28;20092;-80
2023/12/19 21:32:45;;;;;;;1.20;1.10;;;;;;;6.37;53.09;92700.03;5107445;28;20044;-81
2023/12/19 21:35:25;;;;;;;1.30;1.10;;;;;;;6.37;53.29;92696.63;5141845;27;20047;-81
2023/12/19 21:37:51;;;;;;;1.15;1.05;;;;;;;6.35;53.41;92686.50;5122581;27;20038;-81
2023/12/19 21:40:29;;;;;;;1.15;1.05;;;;;;;6.40;52.83;92683.91;5137340;27;20036;-81
2023/12/19 21:42:55;;;;;;;2.03;1.20;;;;;;;6.41;52.64;92688.06;5140854;27;20031;-81
2023/12/19 21:45:46;;;;;;;1.63;1.20;;;;;;;6.42;52.13;92684.44;5130169;28;20495;-81
2023/12/19 21:48:20;;;;;;;1.02;0.90;;;;;;;6.44;51.58;92684.97;5141258;27;20083;-81
2023/12/19 21:50:46;;;;;;;1.35;1.10;;;;;;;6.45;51.41;92676.13;5140474;27;20055;-81
2023/12/19 21:53:21;;;;;;;0.70;0.68;;;;;;;6.46;51.43;92679.50;5119258;28;20068;-80
2023/12/19 21:55:55;;;;;;;5.95;1.15;;;;;;;6.45;52.05;92670.16;5131623;27;20402;-80
2023/12/19 21:58:20;;;;;;;1.05;0.90;;;;;;;6.40;52.52;92668.31;5130115;27;20042;-81
2023/12/19 22:00:46;;;;;;;0.90;0.90;;;;;;;6.37;52.46;92668.84;5129720;27;20040;-80
2023/12/19 22:03:30;;;;;;;1.00;0.90;;;;;;;6.30;53.42;92657.88;5133305;27;20035;-81
2023/12/19 22:05:56;;;;;;;1.52;1.20;;;;;;;6.29;53.08;92663.34;5135936;27;20041;-80
2023/12/19 22:08:23;;;;;;;1.35;1.20;;;;;;;6.24;53.17;92648.50;5131627;27;20423;-80
2023/12/19 22:11:11;;;;;;;1.20;1.08;;;;;;;6.25;53.48;92656.03;5127579;28;20057;-81
2023/12/19 22:13:37;;;;;;;1.10;1.00;;;;;;;6.22;54.07;92647.97;5135477;27;20035;-81
2023/12/19 22:16:06;;;;;;;1.50;1.15;;;;;;;6.21;55.35;92649.81;5141542;27;20035;-81
